sensor_id;sensor_type;location;lat;lon;timestamp;pressure;altitude;pressure_sealevel;temperature;humidity
41947;BME280;27638;42.184;24.848;2023-03-14T00:01:13;100359.75;;;7.32;47.22
41947;BME280;27638;42.184;24.848;2023-03-14T00:03:41;100353.19;;;7.16;47.77
41947;BME280;27638;42.184;24.848;2023-03-14T00:06:07;100345.03;;;7.19;47.48
41947;BME280;27638;42.184;24.848;2023-03-14T00:08:33;100348.13;;;7.35;47.35
41947;BME280;27638;42.184;24.848;2023-03-14T00:11:14;100349.72;;;7.47;47.35
41947;BME280;27638;42.184;24.848;2023-03-14T00:13:40;100347.47;;;7.43;46.70
41947;BME280;27638;42.184;24.848;2023-03-14T00:16:07;100342.25;;;7.31;47.80
41947;BME280;27638;42.184;24.848;2023-03-14T00:18:33;100339.75;;;7.30;48.20
41947;BME280;27638;42.184;24.848;2023-03-14T00:21:00;100332.44;;;7.22;48.14
41947;BME280;27638;42.184;24.848;2023-03-14T00:23:27;100330.91;;;7.20;47.97
41947;BME280;27638;42.184;24.848;2023-03-14T00:25:53;100327.31;;;7.21;48.72
41947;BME280;27638;42.184;24.848;2023-03-14T00:28:18;100316.94;;;7.08;48.80
41947;BME280;27638;42.184;24.848;2023-03-14T00:30:44;100312.75;;;7.05;48.60
41947;BME280;27638;42.184;24.848;2023-03-14T00:33:09;100318.31;;;6.91;48.57
41947;BME280;27638;42.184;24.848;2023-03-14T00:35:35;100321.94;;;6.79;49.51
41947;BME280;27638;42.184;24.848;2023-03-14T00:38:00;100314.75;;;6.81;49.35
41947;BME280;27638;42.184;24.848;2023-03-14T00:40:25;100316.47;;;6.71;49.32
41947;BME280;27638;42.184;24.848;2023-03-14T00:42:51;100306.81;;;6.60;49.13
41947;BME280;27638;42.184;24.848;2023-03-14T00:45:16;100300.50;;;6.29;50.35
41947;BME280;27638;42.184;24.848;2023-03-14T00:47:42;100302.16;;;6.08;50.79
41947;BME280;27638;42.184;24.848;2023-03-14T00:50:11;100308.63;;;5.93;51.19
41947;BME280;27638;42.184;24.848;2023-03-14T00:52:36;100299.06;;;6.14;51.09
41947;BME280;27638;42.184;24.848;2023-03-14T00:55:02;100299.91;;;6.15;50.77
41947;BME280;27638;42.184;24.848;2023-03-14T00:57:28;100293.44;;;6.41;50.78
41947;BME280;27638;42.184;24.848;2023-03-14T00:59:53;100292.22;;;6.56;49.79
41947;BME280;27638;42.184;24.848;2023-03-14T01:02:19;100288.00;;;6.65;49.79
41947;BME280;27638;42.184;24.848;2023-03-14T01:04:47;100284.31;;;6.67;49.53
41947;BME280;27638;42.184;24.848;2023-03-14T01:07:13;100278.19;;;6.67;50.35
41947;BME280;27638;42.184;24.848;2023-03-14T01:09:38;100271.97;;;6.68;48.71
41947;BME280;27638;42.184;24.848;2023-03-14T01:12:03;100269.03;;;6.50;48.48
41947;BME280;27638;42.184;24.848;2023-03-14T01:14:29;100267.84;;;6.54;49.09
41947;BME280;27638;42.184;24.848;2023-03-14T01:16:54;100267.22;;;6.62;48.42
41947;BME280;27638;42.184;24.848;2023-03-14T01:19:28;100264.72;;;6.49;48.80
41947;BME280;27638;42.184;24.848;2023-03-14T01:21:54;100264.75;;;6.38;49.62
41947;BME280;27638;42.184;24.848;2023-03-14T01:24:19;100262.34;;;6.46;49.65
41947;BME280;27638;42.184;24.848;2023-03-14T01:26:46;100261.47;;;6.57;49.96
41947;BME280;27638;42.184;24.848;2023-03-14T01:29:11;100255.47;;;6.66;49.81
41947;BME280;27638;42.184;24.848;2023-03-14T01:31:37;100260.16;;;6.62;49.17
41947;BME280;27638;42.184;24.848;2023-03-14T01:34:02;100252.16;;;6.53;49.47
41947;BME280;27638;42.184;24.848;2023-03-14T01:36:28;100263.28;;;6.56;49.63
41947;BME280;27638;42.184;24.848;2023-03-14T01:38:53;100254.84;;;6.73;48.99
41947;BME280;27638;42.184;24.848;2023-03-14T01:41:22;100254.84;;;6.73;49.49
41947;BME280;27638;42.184;24.848;2023-03-14T01:43:48;100256.31;;;6.66;49.05
41947;BME280;27638;42.184;24.848;2023-03-14T01:51:15;100252.09;;;6.75;49.13
41947;BME280;27638;42.184;24.848;2023-03-14T01:53:42;100244.31;;;6.73;49.63
41947;BME280;27638;42.184;24.848;2023-03-14T01:56:10;100254.69;;;6.54;49.85
41947;BME280;27638;42.184;24.848;2023-03-14T01:58:37;100240.13;;;6.17;51.37
41947;BME280;27638;42.184;24.848;2023-03-14T02:01:06;100238.44;;;6.49;50.33
41947;BME280;27638;42.184;24.848;2023-03-14T02:03:38;100236.44;;;6.19;50.54
41947;BME280;27638;42.184;24.848;2023-03-14T02:06:08;100239.31;;;6.16;50.15
41947;BME280;27638;42.184;24.848;2023-03-14T02:08:37;100230.69;;;6.14;50.26
41947;BME280;27638;42.184;24.848;2023-03-14T02:11:03;100230.34;;;6.07;49.96
41947;BME280;27638;42.184;24.848;2023-03-14T02:13:29;100225.94;;;6.08;50.62
41947;BME280;27638;42.184;24.848;2023-03-14T02:15:54;100235.38;;;6.11;50.02
41947;BME280;27638;42.184;24.848;2023-03-14T02:18:20;100232.25;;;6.17;51.19
41947;BME280;27638;42.184;24.848;2023-03-14T02:21:05;100237.63;;;6.15;51.21
41947;BME280;27638;42.184;24.848;2023-03-14T02:26:33;100234.50;;;6.21;50.75
41947;BME280;27638;42.184;24.848;2023-03-14T02:28:59;100229.50;;;6.29;49.88
41947;BME280;27638;42.184;24.848;2023-03-14T02:31:25;100226.25;;;6.37;50.16
41947;BME280;27638;42.184;24.848;2023-03-14T02:33:50;100232.13;;;6.40;49.45
41947;BME280;27638;42.184;24.848;2023-03-14T02:36:17;100224.81;;;6.44;50.14
41947;BME280;27638;42.184;24.848;2023-03-14T02:38:51;100222.09;;;6.34;50.16
41947;BME280;27638;42.184;24.848;2023-03-14T02:41:19;100223.88;;;6.23;49.79
41947;BME280;27638;42.184;24.848;2023-03-14T02:43:44;100230.44;;;6.17;50.40
41947;BME280;27638;42.184;24.848;2023-03-14T02:46:12;100238.47;;;6.04;50.77
41947;BME280;27638;42.184;24.848;2023-03-14T02:48:44;100247.78;;;6.20;50.47
41947;BME280;27638;42.184;24.848;2023-03-14T02:51:11;100243.97;;;6.13;51.11
41947;BME280;27638;42.184;24.848;2023-03-14T02:53:37;100235.84;;;5.93;51.64
41947;BME280;27638;42.184;24.848;2023-03-14T02:56:04;100234.19;;;5.92;51.48
41947;BME280;27638;42.184;24.848;2023-03-14T02:58:30;100242.78;;;5.94;51.69
41947;BME280;27638;42.184;24.848;2023-03-14T03:00:55;100246.56;;;5.57;52.52
41947;BME280;27638;42.184;24.848;2023-03-14T03:03:21;100247.78;;;5.64;52.86
41947;BME280;27638;42.184;24.848;2023-03-14T03:05:51;100251.22;;;5.64;53.07
41947;BME280;27638;42.184;24.848;2023-03-14T03:08:19;100237.91;;;5.90;52.14
41947;BME280;27638;42.184;24.848;2023-03-14T03:10:45;100244.81;;;6.02;51.71
41947;BME280;27638;42.184;24.848;2023-03-14T03:13:11;100248.84;;;5.84;51.51
41947;BME280;27638;42.184;24.848;2023-03-14T03:15:36;100253.28;;;5.83;50.47
41947;BME280;27638;42.184;24.848;2023-03-14T03:18:02;100258.78;;;5.80;50.61
41947;BME280;27638;42.184;24.848;2023-03-14T03:20:27;100261.72;;;5.42;52.77
41947;BME280;27638;42.184;24.848;2023-03-14T03:22:53;100252.09;;;5.19;53.21
41947;BME280;27638;42.184;24.848;2023-03-14T03:25:18;100261.41;;;4.88;54.22
41947;BME280;27638;42.184;24.848;2023-03-14T03:27:44;100250.59;;;5.03;54.43
41947;BME280;27638;42.184;24.848;2023-03-14T03:30:10;100249.16;;;4.99;54.38
41947;BME280;27638;42.184;24.848;2023-03-14T03:32:35;100256.91;;;5.01;54.05
41947;BME280;27638;42.184;24.848;2023-03-14T03:35:02;100249.50;;;5.30;53.61
41947;BME280;27638;42.184;24.848;2023-03-14T03:37:31;100251.31;;;5.29;53.02
41947;BME280;27638;42.184;24.848;2023-03-14T03:39:56;100238.78;;;5.44;52.76
41947;BME280;27638;42.184;24.848;2023-03-14T03:42:22;100247.03;;;5.51;52.75
41947;BME280;27638;42.184;24.848;2023-03-14T03:44:47;100244.41;;;5.51;51.99
41947;BME280;27638;42.184;24.848;2023-03-14T03:47:13;100241.44;;;5.55;50.89
41947;BME280;27638;42.184;24.848;2023-03-14T03:49:39;100250.75;;;5.59;50.36
41947;BME280;27638;42.184;24.848;2023-03-14T03:52:04;100245.84;;;5.55;49.57
41947;BME280;27638;42.184;24.848;2023-03-14T03:54:29;100250.97;;;5.45;50.00
41947;BME280;27638;42.184;24.848;2023-03-14T03:56:55;100247.75;;;5.41;50.55
41947;BME280;27638;42.184;24.848;2023-03-14T03:59:20;100244.06;;;5.44;50.41
41947;BME280;27638;42.184;24.848;2023-03-14T04:01:46;100244.88;;;5.44;49.79
41947;BME280;27638;42.184;24.848;2023-03-14T04:04:12;100242.59;;;5.40;49.07
41947;BME280;27638;42.184;24.848;2023-03-14T04:06:38;100233.03;;;5.28;50.68
41947;BME280;27638;42.184;24.848;2023-03-14T04:09:04;100236.44;;;4.82;50.81
41947;BME280;27638;42.184;24.848;2023-03-14T04:11:29;100221.63;;;4.70;51.52
41947;BME280;27638;42.184;24.848;2023-03-14T04:13:55;100230.38;;;4.58;52.37
41947;BME280;27638;42.184;24.848;2023-03-14T04:16:23;100226.81;;;4.59;52.70
41947;BME280;27638;42.184;24.848;2023-03-14T04:18:48;100224.25;;;4.70;52.37
41947;BME280;27638;42.184;24.848;2023-03-14T04:21:14;100218.88;;;4.47;52.95
41947;BME280;27638;42.184;24.848;2023-03-14T04:23:40;100217.00;;;4.49;53.73
41947;BME280;27638;42.184;24.848;2023-03-14T04:26:05;100216.66;;;4.30;54.47
41947;BME280;27638;42.184;24.848;2023-03-14T04:28:31;100205.63;;;4.38;54.44
41947;BME280;27638;42.184;24.848;2023-03-14T04:30:56;100214.75;;;4.56;54.16
41947;BME280;27638;42.184;24.848;2023-03-14T04:33:22;100212.31;;;4.66;53.50
41947;BME280;27638;42.184;24.848;2023-03-14T04:35:48;100209.94;;;4.74;53.33
41947;BME280;27638;42.184;24.848;2023-03-14T04:38:15;100209.75;;;4.88;53.35
41947;BME280;27638;42.184;24.848;2023-03-14T04:40:42;100202.25;;;4.95;53.13
41947;BME280;27638;42.184;24.848;2023-03-14T04:43:08;100212.78;;;5.06;52.47
41947;BME280;27638;42.184;24.848;2023-03-14T04:45:34;100205.66;;;5.19;52.59
41947;BME280;27638;42.184;24.848;2023-03-14T04:48:00;100218.72;;;5.32;52.13
41947;BME280;27638;42.184;24.848;2023-03-14T04:50:25;100214.31;;;5.43;51.84
41947;BME280;27638;42.184;24.848;2023-03-14T04:52:51;100217.91;;;5.54;51.40
41947;BME280;27638;42.184;24.848;2023-03-14T04:55:16;100220.53;;;5.54;51.61
41947;BME280;27638;42.184;24.848;2023-03-14T04:57:42;100224.94;;;5.42;52.08
41947;BME280;27638;42.184;24.848;2023-03-14T05:00:08;100227.69;;;5.40;52.01
41947;BME280;27638;42.184;24.848;2023-03-14T05:02:34;100221.41;;;5.19;52.21
41947;BME280;27638;42.184;24.848;2023-03-14T05:05:00;100224.50;;;5.13;52.29
41947;BME280;27638;42.184;24.848;2023-03-14T05:07:25;100231.25;;;4.93;52.87
41947;BME280;27638;42.184;24.848;2023-03-14T05:09:51;100233.50;;;4.87;53.16
41947;BME280;27638;42.184;24.848;2023-03-14T05:12:18;100234.06;;;4.79;53.48
41947;BME280;27638;42.184;24.848;2023-03-14T05:14:44;100230.88;;;4.63;54.53
41947;BME280;27638;42.184;24.848;2023-03-14T05:17:09;100230.44;;;4.45;55.93
41947;BME280;27638;42.184;24.848;2023-03-14T05:19:36;100237.81;;;4.64;55.82
41947;BME280;27638;42.184;24.848;2023-03-14T05:22:02;100232.44;;;4.65;56.29
41947;BME280;27638;42.184;24.848;2023-03-14T05:24:27;100235.28;;;4.62;57.05
41947;BME280;27638;42.184;24.848;2023-03-14T05:26:53;100234.47;;;4.62;57.74
41947;BME280;27638;42.184;24.848;2023-03-14T05:29:18;100241.09;;;4.78;57.73
41947;BME280;27638;42.184;24.848;2023-03-14T05:31:44;100237.63;;;4.54;58.52
41947;BME280;27638;42.184;24.848;2023-03-14T05:34:09;100241.41;;;4.26;59.87
41947;BME280;27638;42.184;24.848;2023-03-14T05:36:34;100241.66;;;4.47;60.45
41947;BME280;27638;42.184;24.848;2023-03-14T05:39:00;100238.25;;;4.81;60.06
41947;BME280;27638;42.184;24.848;2023-03-14T05:41:26;100240.56;;;4.97;59.69
41947;BME280;27638;42.184;24.848;2023-03-14T05:43:51;100233.31;;;5.12;59.59
41947;BME280;27638;42.184;24.848;2023-03-14T05:46:16;100240.06;;;5.27;58.78
41947;BME280;27638;42.184;24.848;2023-03-14T05:48:42;100239.66;;;5.56;57.79
41947;BME280;27638;42.184;24.848;2023-03-14T05:51:07;100232.97;;;5.74;55.44
41947;BME280;27638;42.184;24.848;2023-03-14T05:53:33;100239.91;;;5.86;55.08
41947;BME280;27638;42.184;24.848;2023-03-14T05:55:58;100244.91;;;6.23;55.68
41947;BME280;27638;42.184;24.848;2023-03-14T05:58:24;100244.94;;;6.66;53.93
41947;BME280;27638;42.184;24.848;2023-03-14T06:00:50;100243.97;;;6.99;51.91
41947;BME280;27638;42.184;24.848;2023-03-14T06:03:15;100236.47;;;7.15;51.00
41947;BME280;27638;42.184;24.848;2023-03-14T06:05:41;100234.03;;;7.23;50.82
41947;BME280;27638;42.184;24.848;2023-03-14T06:08:06;100233.59;;;7.39;50.33
41947;BME280;27638;42.184;24.848;2023-03-14T06:10:32;100242.66;;;7.46;50.51
41947;BME280;27638;42.184;24.848;2023-03-14T06:12:57;100237.09;;;7.70;50.36
41947;BME280;27638;42.184;24.848;2023-03-14T06:15:23;100241.75;;;7.87;49.01
41947;BME280;27638;42.184;24.848;2023-03-14T06:17:48;100232.69;;;8.11;48.63
41947;BME280;27638;42.184;24.848;2023-03-14T06:20:14;100239.09;;;8.27;48.18
41947;BME280;27638;42.184;24.848;2023-03-14T06:22:39;100238.78;;;8.42;47.37
41947;BME280;27638;42.184;24.848;2023-03-14T06:25:06;100234.34;;;8.52;46.98
41947;BME280;27638;42.184;24.848;2023-03-14T06:27:32;100232.28;;;8.65;46.94
41947;BME280;27638;42.184;24.848;2023-03-14T06:29:58;100229.50;;;8.67;46.83
41947;BME280;27638;42.184;24.848;2023-03-14T06:32:23;100227.69;;;8.67;47.09
41947;BME280;27638;42.184;24.848;2023-03-14T06:34:49;100225.91;;;8.77;47.41
41947;BME280;27638;42.184;24.848;2023-03-14T06:37:15;100226.31;;;8.92;48.04
41947;BME280;27638;42.184;24.848;2023-03-14T06:39:41;100220.88;;;9.13;46.97
41947;BME280;27638;42.184;24.848;2023-03-14T06:42:06;100218.06;;;9.34;46.19
41947;BME280;27638;42.184;24.848;2023-03-14T06:44:31;100227.50;;;9.36;45.90
41947;BME280;27638;42.184;24.848;2023-03-14T06:46:57;100229.09;;;9.00;46.10
41947;BME280;27638;42.184;24.848;2023-03-14T06:49:22;100228.78;;;9.22;45.55
41947;BME280;27638;42.184;24.848;2023-03-14T06:51:48;100230.44;;;9.43;45.16
41947;BME280;27638;42.184;24.848;2023-03-14T06:54:13;100224.16;;;9.53;45.08
41947;BME280;27638;42.184;24.848;2023-03-14T06:56:39;100224.72;;;9.47;44.18
41947;BME280;27638;42.184;24.848;2023-03-14T06:59:05;100220.44;;;9.37;44.13
41947;BME280;27638;42.184;24.848;2023-03-14T07:01:30;100212.88;;;9.51;43.99
41947;BME280;27638;42.184;24.848;2023-03-14T07:03:57;100211.94;;;9.80;44.16
41947;BME280;27638;42.184;24.848;2023-03-14T07:06:23;100203.09;;;9.99;43.34
41947;BME280;27638;42.184;24.848;2023-03-14T07:08:49;100198.53;;;9.91;43.66
41947;BME280;27638;42.184;24.848;2023-03-14T07:11:15;100197.53;;;10.19;42.91
41947;BME280;27638;42.184;24.848;2023-03-14T07:13:40;100192.31;;;10.37;42.53
41947;BME280;27638;42.184;24.848;2023-03-14T07:16:07;100191.97;;;10.50;42.35
41947;BME280;27638;42.184;24.848;2023-03-14T07:18:33;100184.03;;;10.68;41.40
41947;BME280;27638;42.184;24.848;2023-03-14T07:20:58;100183.19;;;10.85;42.40
41947;BME280;27638;42.184;24.848;2023-03-14T07:23:24;100173.06;;;10.63;42.55
41947;BME280;27638;42.184;24.848;2023-03-14T07:25:49;100180.25;;;10.70;42.49
41947;BME280;27638;42.184;24.848;2023-03-14T07:28:16;100159.50;;;10.83;42.06
41947;BME280;27638;42.184;24.848;2023-03-14T07:30:41;100160.53;;;10.91;41.36
41947;BME280;27638;42.184;24.848;2023-03-14T07:33:07;100165.56;;;11.19;40.54
41947;BME280;27638;42.184;24.848;2023-03-14T07:35:32;100167.16;;;11.38;40.43
41947;BME280;27638;42.184;24.848;2023-03-14T07:37:58;100168.59;;;11.50;40.10
41947;BME280;27638;42.184;24.848;2023-03-14T07:40:23;100169.13;;;11.10;40.73
41947;BME280;27638;42.184;24.848;2023-03-14T07:42:49;100167.41;;;11.27;39.04
41947;BME280;27638;42.184;24.848;2023-03-14T07:45:15;100164.34;;;11.40;39.26
41947;BME280;27638;42.184;24.848;2023-03-14T07:47:40;100160.50;;;11.34;38.98
41947;BME280;27638;42.184;24.848;2023-03-14T07:50:06;100162.97;;;11.54;38.85
41947;BME280;27638;42.184;24.848;2023-03-14T07:52:32;100159.00;;;11.32;39.39
41947;BME280;27638;42.184;24.848;2023-03-14T07:54:57;100150.78;;;11.69;38.68
41947;BME280;27638;42.184;24.848;2023-03-14T07:57:23;100150.44;;;12.06;38.24
41947;BME280;27638;42.184;24.848;2023-03-14T07:59:49;100147.47;;;12.09;38.18
41947;BME280;27638;42.184;24.848;2023-03-14T08:02:15;100140.56;;;11.82;38.50
41947;BME280;27638;42.184;24.848;2023-03-14T08:04:41;100146.22;;;11.87;38.09
41947;BME280;27638;42.184;24.848;2023-03-14T08:07:06;100143.41;;;11.55;38.51
41947;BME280;27638;42.184;24.848;2023-03-14T08:09:32;100147.56;;;11.91;38.16
41947;BME280;27638;42.184;24.848;2023-03-14T08:11:58;100150.94;;;12.09;37.63
41947;BME280;27638;42.184;24.848;2023-03-14T08:14:23;100134.72;;;12.21;37.46
41947;BME280;27638;42.184;24.848;2023-03-14T08:16:51;100137.22;;;12.46;37.73
41947;BME280;27638;42.184;24.848;2023-03-14T08:19:17;100124.31;;;12.52;36.03
41947;BME280;27638;42.184;24.848;2023-03-14T08:21:42;100122.81;;;12.49;36.01
41947;BME280;27638;42.184;24.848;2023-03-14T08:24:08;100130.63;;;12.59;34.79
41947;BME280;27638;42.184;24.848;2023-03-14T08:26:33;100123.66;;;12.74;35.38
41947;BME280;27638;42.184;24.848;2023-03-14T08:28:59;100123.66;;;12.82;36.02
41947;BME280;27638;42.184;24.848;2023-03-14T08:31:24;100119.50;;;12.79;35.58
41947;BME280;27638;42.184;24.848;2023-03-14T08:33:50;100118.66;;;12.95;35.32
41947;BME280;27638;42.184;24.848;2023-03-14T08:36:18;100117.66;;;12.88;34.28
41947;BME280;27638;42.184;24.848;2023-03-14T08:38:43;100104.22;;;12.73;34.65
41947;BME280;27638;42.184;24.848;2023-03-14T08:41:10;100102.56;;;12.64;34.76
41947;BME280;27638;42.184;24.848;2023-03-14T08:43:35;100110.72;;;12.55;35.46
41947;BME280;27638;42.184;24.848;2023-03-14T08:46:02;100099.25;;;12.54;34.56
41947;BME280;27638;42.184;24.848;2023-03-14T08:48:28;100098.41;;;12.70;35.04
41947;BME280;27638;42.184;24.848;2023-03-14T08:50:56;100090.63;;;12.52;35.08
41947;BME280;27638;42.184;24.848;2023-03-14T08:53:22;100088.47;;;12.56;34.96
41947;BME280;27638;42.184;24.848;2023-03-14T08:55:52;100086.09;;;12.44;35.21
41947;BME280;27638;42.184;24.848;2023-03-14T08:58:18;100079.31;;;12.42;35.96
41947;BME280;27638;42.184;24.848;2023-03-14T09:00:43;100071.03;;;12.53;35.92
41947;BME280;27638;42.184;24.848;2023-03-14T09:03:09;100067.53;;;12.53;36.09
41947;BME280;27638;42.184;24.848;2023-03-14T09:05:34;100057.25;;;12.58;36.28
41947;BME280;27638;42.184;24.848;2023-03-14T09:08:00;100055.06;;;12.77;36.51
41947;BME280;27638;42.184;24.848;2023-03-14T09:10:25;100043.06;;;12.98;36.58
41947;BME280;27638;42.184;24.848;2023-03-14T09:12:51;100046.00;;;13.11;36.25
41947;BME280;27638;42.184;24.848;2023-03-14T09:15:16;100039.56;;;12.97;35.82
41947;BME280;27638;42.184;24.848;2023-03-14T09:17:43;100040.72;;;13.03;35.43
41947;BME280;27638;42.184;24.848;2023-03-14T09:20:09;100034.44;;;12.88;34.97
41947;BME280;27638;42.184;24.848;2023-03-14T09:22:35;100033.66;;;12.38;36.57
41947;BME280;27638;42.184;24.848;2023-03-14T09:25:02;100020.88;;;12.26;35.73
41947;BME280;27638;42.184;24.848;2023-03-14T09:27:27;100016.41;;;12.18;36.01
41947;BME280;27638;42.184;24.848;2023-03-14T09:29:53;100019.03;;;11.86;36.85
41947;BME280;27638;42.184;24.848;2023-03-14T09:32:18;100020.59;;;11.20;36.29
41947;BME280;27638;42.184;24.848;2023-03-14T09:34:43;100002.63;;;11.40;35.73
41947;BME280;27638;42.184;24.848;2023-03-14T09:37:09;100004.53;;;11.22;35.75
41947;BME280;27638;42.184;24.848;2023-03-14T09:39:34;99999.91;;;11.66;36.71
41947;BME280;27638;42.184;24.848;2023-03-14T09:42:03;99991.66;;;11.85;36.67
41947;BME280;27638;42.184;24.848;2023-03-14T09:44:37;99992.66;;;11.84;36.26
41947;BME280;27638;42.184;24.848;2023-03-14T09:47:11;99984.38;;;11.87;35.67
41947;BME280;27638;42.184;24.848;2023-03-14T09:49:41;99982.88;;;11.85;37.43
41947;BME280;27638;42.184;24.848;2023-03-14T09:52:14;99984.31;;;11.71;37.25
41947;BME280;27638;42.184;24.848;2023-03-14T09:54:50;99982.47;;;11.55;35.83
41947;BME280;27638;42.184;24.848;2023-03-14T09:57:18;99984.34;;;11.29;37.21
41947;BME280;27638;42.184;24.848;2023-03-14T09:59:46;99985.25;;;11.03;37.60
41947;BME280;27638;42.184;24.848;2023-03-14T10:02:23;99979.41;;;11.34;37.27
41947;BME280;27638;42.184;24.848;2023-03-14T10:04:51;99973.09;;;11.35;37.08
41947;BME280;27638;42.184;24.848;2023-03-14T10:07:25;99969.38;;;11.62;36.84
41947;BME280;27638;42.184;24.848;2023-03-14T10:09:52;99948.81;;;11.56;37.04
41947;BME280;27638;42.184;24.848;2023-03-14T10:12:18;99946.34;;;11.62;37.87
41947;BME280;27638;42.184;24.848;2023-03-14T10:14:48;99954.34;;;11.95;37.98
41947;BME280;27638;42.184;24.848;2023-03-14T10:17:15;99949.22;;;12.09;36.63
41947;BME280;27638;42.184;24.848;2023-03-14T10:20:00;99937.44;;;12.04;35.94
41947;BME280;27638;42.184;24.848;2023-03-14T10:22:30;99928.16;;;11.92;37.00
41947;BME280;27638;42.184;24.848;2023-03-14T10:25:03;99919.19;;;11.93;36.67
41947;BME280;27638;42.184;24.848;2023-03-14T10:27:35;99915.56;;;11.94;36.42
41947;BME280;27638;42.184;24.848;2023-03-14T10:30:04;99911.41;;;11.99;37.75
41947;BME280;27638;42.184;24.848;2023-03-14T10:32:38;99882.72;;;11.95;36.64
41947;BME280;27638;42.184;24.848;2023-03-14T10:37:56;99893.50;;;11.85;34.75
41947;BME280;27638;42.184;24.848;2023-03-14T10:40:47;99891.81;;;12.08;33.81
41947;BME280;27638;42.184;24.848;2023-03-14T10:43:17;99882.34;;;12.14;35.74
41947;BME280;27638;42.184;24.848;2023-03-14T10:45:58;99878.69;;;12.15;35.44
41947;BME280;27638;42.184;24.848;2023-03-14T10:48:38;99868.41;;;12.12;34.98
41947;BME280;27638;42.184;24.848;2023-03-14T10:51:27;99856.75;;;12.37;35.01
41947;BME280;27638;42.184;24.848;2023-03-14T10:53:57;99855.31;;;12.10;34.79
41947;BME280;27638;42.184;24.848;2023-03-14T10:56:24;99849.97;;;12.27;34.73
41947;BME280;27638;42.184;24.848;2023-03-14T10:58:53;99842.31;;;12.32;34.89
41947;BME280;27638;42.184;24.848;2023-03-14T11:01:41;99837.16;;;12.38;35.24
41947;BME280;27638;42.184;24.848;2023-03-14T11:10:11;99820.16;;;12.08;33.78
41947;BME280;27638;42.184;24.848;2023-03-14T11:12:49;99808.88;;;12.06;34.22
41947;BME280;27638;42.184;24.848;2023-03-14T11:15:20;99815.00;;;12.15;36.01
41947;BME280;27638;42.184;24.848;2023-03-14T11:18:02;99793.91;;;12.22;33.33
41947;BME280;27638;42.184;24.848;2023-03-14T11:26:38;99767.78;;;12.72;34.50
41947;BME280;27638;42.184;24.848;2023-03-14T11:29:22;99751.69;;;12.74;33.92
41947;BME280;27638;42.184;24.848;2023-03-14T11:31:55;99743.31;;;12.85;33.80
41947;BME280;27638;42.184;24.848;2023-03-14T11:34:34;99741.63;;;12.61;34.86
41947;BME280;27638;42.184;24.848;2023-03-14T11:37:18;99733.59;;;12.38;34.88
41947;BME280;27638;42.184;24.848;2023-03-14T11:39:58;99725.81;;;12.37;35.95
41947;BME280;27638;42.184;24.848;2023-03-14T11:42:26;99713.47;;;12.44;35.05
41947;BME280;27638;42.184;24.848;2023-03-14T11:44:54;99716.41;;;12.26;36.30
41947;BME280;27638;42.184;24.848;2023-03-14T11:47:29;99710.16;;;12.42;34.72
41947;BME280;27638;42.184;24.848;2023-03-14T11:52:37;99703.00;;;12.51;36.72
41947;BME280;27638;42.184;24.848;2023-03-14T11:57:47;99678.84;;;12.37;36.07
41947;BME280;27638;42.184;24.848;2023-03-14T12:00:19;99665.00;;;12.50;35.62
41947;BME280;27638;42.184;24.848;2023-03-14T12:03:02;99668.44;;;12.59;36.14
41947;BME280;27638;42.184;24.848;2023-03-14T12:05:48;99657.88;;;12.42;36.31
41947;BME280;27638;42.184;24.848;2023-03-14T12:08:38;99654.09;;;12.37;38.67
41947;BME280;27638;42.184;24.848;2023-03-14T12:13:36;99629.31;;;12.53;37.50
41947;BME280;27638;42.184;24.848;2023-03-14T12:16:07;99622.69;;;12.49;39.58
41947;BME280;27638;42.184;24.848;2023-03-14T12:18:44;99622.19;;;12.45;38.22
41947;BME280;27638;42.184;24.848;2023-03-14T12:21:11;99612.44;;;12.37;37.10
41947;BME280;27638;42.184;24.848;2023-03-14T12:23:43;99606.75;;;12.49;38.38
41947;BME280;27638;42.184;24.848;2023-03-14T12:26:15;99602.41;;;12.47;37.15
41947;BME280;27638;42.184;24.848;2023-03-14T12:36:55;99588.19;;;12.86;35.73
41947;BME280;27638;42.184;24.848;2023-03-14T12:50:54;99558.09;;;12.71;35.70
41947;BME280;27638;42.184;24.848;2023-03-14T13:01:34;99544.84;;;12.86;35.78
41947;BME280;27638;42.184;24.848;2023-03-14T13:04:18;99540.63;;;12.91;36.34
41947;BME280;27638;42.184;24.848;2023-03-14T13:06:48;99537.50;;;13.02;35.21
41947;BME280;27638;42.184;24.848;2023-03-14T13:11:56;99534.31;;;12.92;36.54
41947;BME280;27638;42.184;24.848;2023-03-14T13:14:22;99529.44;;;12.96;36.84
41947;BME280;27638;42.184;24.848;2023-03-14T13:16:48;99518.09;;;13.02;35.38
41947;BME280;27638;42.184;24.848;2023-03-14T13:19:25;99523.50;;;13.08;36.46
41947;BME280;27638;42.184;24.848;2023-03-14T13:21:56;99516.97;;;12.96;37.29
41947;BME280;27638;42.184;24.848;2023-03-14T13:24:26;99504.59;;;13.03;36.15
41947;BME280;27638;42.184;24.848;2023-03-14T13:26:54;99512.13;;;13.00;36.86
41947;BME280;27638;42.184;24.848;2023-03-14T13:31:46;99504.25;;;13.06;35.71
41947;BME280;27638;42.184;24.848;2023-03-14T13:34:12;99498.38;;;13.11;35.69
41947;BME280;27638;42.184;24.848;2023-03-14T13:36:38;99499.66;;;13.15;36.39
41947;BME280;27638;42.184;24.848;2023-03-14T13:39:09;99483.38;;;13.18;36.15
41947;BME280;27638;42.184;24.848;2023-03-14T13:41:38;99479.06;;;13.17;35.90
41947;BME280;27638;42.184;24.848;2023-03-14T13:44:07;99469.78;;;13.28;35.28
41947;BME280;27638;42.184;24.848;2023-03-14T13:46:34;99476.22;;;13.19;35.20
41947;BME280;27638;42.184;24.848;2023-03-14T13:49:03;99467.94;;;13.14;35.24
41947;BME280;27638;42.184;24.848;2023-03-14T13:51:31;99454.75;;;13.20;34.99
41947;BME280;27638;42.184;24.848;2023-03-14T13:54:00;99453.84;;;13.28;35.02